createdAt,value
2018-02-21T00:01:26.135Z,51.97
2018-02-21T00:03:54.516Z,49.47
2018-02-21T00:06:22.789Z,51.37
2018-02-21T00:08:51.044Z,48.97
2018-02-21T00:11:20.149Z,51.63
2018-02-21T00:13:48.418Z,49.43
2018-02-21T00:16:17.426Z,56.97
2018-02-21T00:18:45.693Z,47.90
2018-02-21T00:21:14.065Z,43.87
2018-02-21T00:23:43.435Z,53.97
2018-02-21T00:26:11.690Z,49.50
2018-02-21T00:28:39.933Z,49.60
2018-02-21T00:31:08.222Z,46.90
2018-02-21T00:33:36.678Z,47.47
2018-02-21T00:36:05.724Z,51.83
2018-02-21T00:38:34.084Z,50.97
2018-02-21T00:41:02.341Z,52.93
2018-02-21T00:43:30.610Z,52.63
2018-02-21T00:45:58.918Z,52.47
2018-02-21T00:48:27.800Z,52.90
2018-02-21T00:50:56.055Z,48.70
2018-02-21T00:53:24.347Z,55.60
2018-02-21T00:55:52.612Z,46.67
2018-02-21T00:58:20.878Z,47.00
2018-02-21T01:00:50.521Z,47.30
2018-02-21T01:03:18.857Z,42.87
2018-02-21T01:05:47.088Z,46.10
2018-02-21T01:08:15.581Z,46.70
2018-02-21T01:10:43.825Z,44.47
2018-02-21T01:13:12.066Z,46.23
2018-02-21T01:15:40.352Z,49.80
2018-02-21T01:18:08.604Z,44.10
2018-02-21T01:20:36.869Z,44.47
2018-02-21T01:23:05.176Z,49.43
2018-02-21T01:25:34.251Z,49.20
2018-02-21T01:28:03.223Z,49.37
2018-02-21T01:30:32.440Z,50.40
2018-02-21T01:33:00.687Z,47.30
2018-02-21T01:35:28.997Z,50.77
2018-02-21T01:37:57.478Z,45.50
2018-02-21T01:40:25.752Z,44.57
2018-02-21T01:42:53.990Z,48.13
2018-02-21T01:45:22.221Z,49.00
2018-02-21T01:47:51.379Z,46.40
2018-02-21T01:50:20.226Z,52.47
2018-02-21T01:52:48.482Z,47.00
2018-02-21T01:55:17.564Z,48.23
2018-02-21T01:57:46.680Z,43.77
2018-02-21T02:00:14.943Z,46.40
2018-02-21T02:02:44.081Z,47.17
2018-02-21T02:05:12.360Z,42.97
2018-02-21T02:07:40.624Z,43.70
2018-02-21T02:10:11.213Z,45.83
2018-02-21T02:12:39.532Z,45.63
2018-02-21T02:15:07.906Z,45.90
2018-02-21T02:17:36.232Z,45.43
2018-02-21T02:20:04.508Z,49.10
2018-02-21T02:22:33.580Z,44.83
2018-02-21T02:25:05.837Z,43.37
2018-02-21T02:27:34.095Z,48.27
2018-02-21T02:30:02.806Z,47.30
2018-02-21T02:32:31.151Z,45.10
2018-02-21T02:35:00.237Z,50.00
2018-02-21T02:37:29.345Z,47.80
2018-02-21T02:40:01.589Z,54.20
2018-02-21T02:42:29.838Z,50.33
2018-02-21T02:44:58.092Z,45.63
2018-02-21T02:47:26.340Z,55.33
2018-02-21T02:49:54.694Z,55.63
2018-02-21T02:52:22.947Z,52.87
2018-02-21T02:54:51.239Z,57.30
2018-02-21T02:57:19.490Z,52.07
2018-02-21T02:59:47.752Z,56.20
2018-02-21T03:02:15.992Z,52.80
2018-02-21T03:04:45.123Z,49.87
2018-02-21T03:07:13.423Z,48.90
2018-02-21T03:09:41.669Z,54.27
2018-02-21T03:12:10.249Z,51.33
2018-02-21T03:14:38.671Z,55.80
2018-02-21T03:17:06.913Z,52.90
2018-02-21T03:19:35.169Z,51.43
2018-02-21T03:22:03.476Z,57.00
2018-02-21T03:24:32.096Z,55.83
2018-02-21T03:27:01.227Z,57.73
2018-02-21T03:29:29.970Z,54.10
2018-02-21T03:31:58.817Z,57.67
2018-02-21T03:34:27.112Z,56.07
2018-02-21T03:36:55.364Z,55.13
2018-02-21T03:39:23.634Z,55.70
2018-02-21T03:41:51.978Z,57.07
2018-02-21T03:44:20.201Z,57.87
2018-02-21T03:46:48.463Z,65.10
2018-02-21T03:49:16.725Z,57.03
2018-02-21T03:51:45.747Z,65.63
2018-02-21T03:54:14.084Z,60.37
2018-02-21T03:56:43.202Z,60.43
2018-02-21T03:59:11.473Z,65.70
2018-02-21T04:01:39.768Z,58.90
2018-02-21T04:04:08.032Z,59.03
2018-02-21T04:06:36.305Z,61.50
2018-02-21T04:09:05.414Z,62.30
2018-02-21T04:11:33.702Z,61.67
2018-02-21T04:14:01.954Z,58.73
2018-02-21T04:16:30.229Z,57.70
2018-02-21T04:19:00.169Z,57.77
2018-02-21T04:21:28.440Z,59.20
2018-02-21T04:23:56.785Z,61.50
2018-02-21T04:26:25.018Z,65.70
2018-02-21T04:28:53.285Z,67.20
2018-02-21T04:31:22.054Z,67.97
2018-02-21T04:33:50.410Z,67.93
2018-02-21T04:36:18.718Z,66.07
2018-02-21T04:38:46.978Z,62.80
2018-02-21T04:41:15.221Z,66.37
2018-02-21T04:43:44.345Z,71.87
2018-02-21T04:46:12.590Z,66.27
2018-02-21T04:48:40.821Z,64.97
2018-02-21T04:51:09.562Z,65.83
2018-02-21T04:53:38.715Z,65.83
2018-02-21T04:56:12.601Z,66.73
2018-02-21T04:58:46.570Z,68.23
2018-02-21T05:01:14.997Z,65.17
2018-02-21T05:03:43.248Z,64.27
2018-02-21T05:06:11.601Z,63.57
2018-02-21T05:08:39.832Z,60.80
2018-02-21T05:11:08.066Z,64.87
2018-02-21T05:13:37.118Z,67.47
2018-02-21T05:16:05.428Z,66.07
2018-02-21T05:18:33.677Z,69.80
2018-02-21T05:21:01.953Z,70.00
2018-02-21T05:23:30.253Z,74.90
2018-02-21T05:25:59.401Z,66.03
2018-02-21T05:28:27.649Z,66.27
2018-02-21T05:30:55.890Z,63.93
2018-02-21T05:33:24.210Z,70.13
2018-02-21T05:35:52.566Z,74.40
2018-02-21T05:38:21.693Z,72.47
2018-02-21T05:40:50.140Z,61.97
2018-02-21T05:43:18.648Z,68.53
2018-02-21T05:45:48.663Z,65.23
2018-02-21T05:48:16.922Z,65.73
2018-02-21T05:50:45.943Z,70.43
2018-02-21T05:53:15.017Z,69.60
2018-02-21T05:55:44.126Z,67.40
2018-02-21T05:58:12.393Z,72.23
2018-02-21T06:00:40.764Z,76.17
2018-02-21T06:03:09.028Z,67.10
2018-02-21T06:05:37.288Z,72.83
2018-02-21T06:08:05.523Z,61.83
2018-02-21T06:10:33.817Z,69.37
2018-02-21T06:13:02.249Z,72.13
2018-02-21T06:15:31.298Z,72.90
2018-02-21T06:17:59.646Z,64.87
2018-02-21T06:20:27.979Z,69.00
2018-02-21T06:22:56.250Z,65.33
2018-02-21T06:25:24.514Z,69.83
2018-02-21T06:27:52.802Z,74.03
2018-02-21T06:30:21.886Z,74.53
2018-02-21T06:32:50.142Z,66.07
2018-02-21T06:35:18.368Z,73.13
2018-02-21T06:37:47.559Z,71.60
2018-02-21T06:40:15.788Z,77.50
2018-02-21T06:42:44.062Z,68.33
2018-02-21T06:45:12.293Z,77.40
2018-02-21T06:47:41.397Z,76.97
2018-02-21T06:50:09.747Z,77.57
2018-02-21T06:52:37.993Z,80.00
2018-02-21T06:55:06.233Z,74.63
2018-02-21T06:57:34.507Z,78.90
2018-02-21T07:00:02.767Z,65.00
2018-02-21T07:02:34.851Z,71.30
2018-02-21T07:05:03.229Z,72.27
2018-02-21T07:07:31.706Z,71.43
2018-02-21T07:10:00.823Z,69.60
2018-02-21T07:12:29.154Z,78.20
2018-02-21T07:14:57.398Z,85.43
2018-02-21T07:17:25.694Z,76.43
2018-02-21T07:19:53.958Z,73.20
2018-02-21T07:22:22.212Z,73.17
2018-02-21T07:24:50.513Z,71.27
2018-02-21T07:27:18.752Z,72.67
2018-02-21T07:29:47.042Z,72.70
2018-02-21T07:32:15.328Z,75.57
2018-02-21T07:34:43.561Z,75.27
2018-02-21T07:37:11.826Z,76.50
2018-02-21T07:39:40.984Z,74.30
2018-02-21T07:42:09.245Z,68.40
2018-02-21T07:44:37.482Z,65.50
2018-02-21T07:47:06.602Z,78.07
2018-02-21T07:49:36.958Z,86.03
2018-02-21T07:52:05.333Z,70.50
2018-02-21T07:54:33.588Z,77.03
2018-02-21T07:57:01.829Z,74.13
2018-02-21T07:59:30.974Z,74.33
2018-02-21T08:01:59.402Z,77.33
2018-02-21T08:04:28.414Z,67.90
2018-02-21T08:06:56.669Z,65.97
2018-02-21T08:09:24.936Z,69.97
2018-02-21T08:11:53.174Z,69.73
2018-02-21T08:14:21.475Z,74.07
2018-02-21T08:16:50.507Z,75.80
2018-02-21T08:19:20.092Z,71.77
2018-02-21T08:21:48.427Z,77.57
2018-02-21T08:24:16.764Z,80.03
2018-02-21T08:26:45.943Z,70.70
2018-02-21T08:29:14.162Z,75.93
2018-02-21T08:31:42.411Z,77.93
2018-02-21T08:34:11.541Z,70.07
2018-02-21T08:36:39.811Z,71.00
2018-02-21T08:39:08.058Z,73.00
2018-02-21T08:41:37.184Z,70.07
2018-02-21T08:44:05.436Z,81.63
2018-02-21T08:46:33.709Z,67.60
2018-02-21T08:49:02.877Z,67.10
2018-02-21T08:51:31.118Z,77.57
2018-02-21T08:53:59.379Z,73.37
2018-02-21T08:56:27.654Z,72.57
2018-02-21T08:58:55.952Z,68.87
2018-02-21T09:01:24.983Z,73.50
2018-02-21T09:03:53.264Z,65.60
2018-02-21T09:06:21.641Z,77.03
2018-02-21T09:08:49.862Z,65.20
2018-02-21T09:11:18.112Z,61.70
2018-02-21T09:13:47.280Z,63.77
2018-02-21T09:16:15.530Z,64.57
2018-02-21T09:18:43.845Z,64.27
2018-02-21T09:21:12.119Z,65.40
2018-02-21T09:23:40.471Z,64.83
2018-02-21T09:26:08.817Z,60.47
2018-02-21T09:28:37.126Z,63.30
2018-02-21T09:31:05.486Z,66.73
2018-02-21T09:33:33.813Z,61.70
2018-02-21T09:36:02.905Z,55.83
2018-02-21T09:38:32.220Z,57.87
2018-02-21T09:41:01.543Z,61.07
2018-02-21T09:43:29.814Z,59.17
2018-02-21T09:45:58.682Z,54.53
2018-02-21T09:48:27.794Z,57.63
2018-02-21T09:50:56.091Z,57.40
2018-02-21T09:53:24.382Z,56.23
2018-02-21T09:55:52.649Z,52.83
2018-02-21T09:58:20.906Z,60.70
2018-02-21T10:00:49.177Z,52.73
2018-02-21T10:03:18.454Z,50.80
2018-02-21T10:05:47.478Z,54.00
2018-02-21T10:08:15.869Z,57.60
2018-02-21T10:10:44.171Z,56.83
2018-02-21T10:13:12.462Z,54.20
2018-02-21T10:15:41.496Z,50.53
2018-02-21T10:18:09.763Z,54.30
2018-02-21T10:20:39.601Z,45.40
2018-02-21T10:23:07.961Z,60.53
2018-02-21T10:25:36.243Z,55.70
2018-02-21T10:28:04.543Z,51.47
2018-02-21T10:30:32.788Z,45.97
2018-02-21T10:33:01.807Z,53.23
2018-02-21T10:35:30.116Z,54.07
2018-02-21T10:37:58.367Z,44.37
2018-02-21T10:40:26.706Z,48.07
2018-02-21T10:42:55.828Z,42.80
2018-02-21T10:45:24.073Z,50.80
2018-02-21T10:47:53.231Z,41.57
2018-02-21T10:50:21.670Z,40.20
2018-02-21T10:52:49.920Z,42.17
2018-02-21T10:55:19.270Z,46.27
2018-02-21T10:57:47.516Z,41.43
2018-02-21T11:00:21.399Z,42.63
2018-02-21T11:02:49.625Z,42.00
2018-02-21T11:05:17.978Z,39.60
2018-02-21T11:07:46.373Z,42.37
2018-02-21T11:10:14.641Z,36.37
2018-02-21T11:12:42.986Z,39.80
2018-02-21T11:15:11.468Z,32.07
2018-02-21T11:17:39.700Z,34.40
2018-02-21T11:20:07.930Z,33.60
2018-02-21T11:22:37.070Z,39.90
2018-02-21T11:25:05.394Z,35.10
2018-02-21T11:27:33.623Z,33.77
2018-02-21T11:30:02.528Z,34.37
2018-02-21T11:32:30.808Z,43.83
2018-02-21T11:34:59.045Z,32.00
2018-02-21T11:37:27.375Z,27.23
2018-02-21T11:39:56.657Z,30.63
2018-02-21T11:42:24.906Z,30.07
2018-02-21T11:44:53.202Z,30.40
2018-02-21T11:47:21.533Z,38.60
2018-02-21T11:49:49.790Z,32.07
2018-02-21T11:52:18.056Z,38.20
2018-02-21T11:54:46.364Z,28.30
2018-02-21T11:57:14.729Z,33.07
2018-02-21T11:59:43.957Z,27.20
2018-02-21T12:02:12.481Z,35.23
2018-02-21T12:04:40.862Z,37.90
2018-02-21T12:07:09.120Z,29.10
2018-02-21T12:09:37.376Z,32.10
2018-02-21T12:12:05.637Z,30.73
2018-02-21T12:14:34.742Z,31.33
2018-02-21T12:17:03.025Z,27.23
2018-02-21T12:19:31.301Z,37.53
2018-02-21T12:21:59.560Z,28.13
2018-02-21T12:24:27.868Z,29.00
2018-02-21T12:26:56.134Z,27.33
2018-02-21T12:29:24.389Z,26.80
2018-02-21T12:31:57.509Z,29.93
2018-02-21T12:34:26.142Z,32.13
2018-02-21T12:36:54.367Z,26.57
2018-02-21T12:39:28.634Z,27.70
2018-02-21T12:41:57.018Z,26.77
2018-02-21T12:44:26.152Z,29.50
2018-02-21T12:46:54.665Z,26.90
2018-02-21T12:49:23.138Z,28.47
2018-02-21T12:51:51.965Z,26.30
2018-02-21T12:54:21.792Z,27.80
2018-02-21T12:56:50.053Z,27.27
2018-02-21T12:59:19.163Z,33.23
2018-02-21T13:01:47.443Z,38.83
2018-02-21T13:04:15.721Z,32.53
2018-02-21T13:06:44.094Z,29.73
2018-02-21T13:09:13.203Z,28.37
2018-02-21T13:11:41.491Z,29.30
2018-02-21T13:14:09.739Z,27.70
2018-02-21T13:16:39.074Z,26.43
2018-02-21T13:19:08.166Z,32.17
2018-02-21T13:21:36.484Z,27.77
2018-02-21T13:24:08.915Z,29.90
2018-02-21T13:26:37.178Z,32.50
2018-02-21T13:29:05.442Z,31.77
2018-02-21T13:31:34.605Z,30.20
2018-02-21T13:34:02.857Z,31.33
2018-02-21T13:36:31.130Z,29.40
2018-02-21T13:38:59.390Z,32.10
2018-02-21T13:41:27.666Z,27.20
2018-02-21T13:43:56.055Z,29.40
2018-02-21T13:46:25.586Z,31.77
2018-02-21T13:48:53.937Z,26.97
2018-02-21T13:51:22.783Z,32.70
2018-02-21T13:53:50.993Z,35.97
2018-02-21T13:56:19.250Z,31.53
2018-02-21T13:58:47.651Z,29.27
2018-02-21T14:01:16.778Z,29.87
2018-02-21T14:03:45.139Z,33.80
2018-02-21T14:06:13.506Z,31.30
2018-02-21T14:08:42.413Z,28.70
2018-02-21T14:11:10.665Z,33.87
2018-02-21T14:13:38.934Z,28.57
2018-02-21T14:16:07.224Z,32.83
2018-02-21T14:18:35.512Z,32.33
2018-02-21T14:21:03.808Z,36.63
2018-02-21T14:23:32.260Z,32.60
2018-02-21T14:26:00.565Z,36.83
2018-02-21T14:28:28.833Z,35.20
2018-02-21T14:30:57.250Z,33.33
2018-02-21T14:33:26.826Z,30.90
2018-02-21T14:35:55.078Z,30.50
2018-02-21T14:38:23.373Z,32.10
2018-02-21T14:40:51.627Z,29.33
2018-02-21T14:43:20.954Z,31.13
2018-02-21T14:45:49.225Z,32.03
2018-02-21T14:48:17.740Z,29.73
2018-02-21T14:50:45.976Z,28.23
2018-02-21T14:53:14.265Z,39.07
2018-02-21T14:55:43.216Z,36.53
2018-02-21T14:58:15.573Z,40.80
2018-02-21T15:00:43.842Z,36.50
2018-02-21T15:03:12.315Z,33.40
2018-02-21T15:05:40.826Z,34.03
2018-02-21T15:08:09.244Z,37.83
2018-02-21T15:10:37.726Z,37.67
2018-02-21T15:13:05.989Z,32.77
2018-02-21T15:15:36.087Z,39.03
2018-02-21T15:18:05.085Z,35.90
2018-02-21T15:20:34.339Z,33.43
2018-02-21T15:23:02.593Z,29.40
2018-02-21T15:25:30.845Z,32.07
2018-02-21T15:27:59.218Z,43.97
2018-02-21T15:30:27.617Z,37.03
2018-02-21T15:32:55.889Z,31.40
2018-02-21T15:35:24.162Z,37.67
2018-02-21T15:37:52.430Z,32.67
2018-02-21T15:40:20.700Z,32.60
2018-02-21T15:42:48.965Z,32.00
2018-02-21T15:45:17.325Z,34.60
2018-02-21T15:47:45.516Z,33.07
2018-02-21T15:50:14.622Z,37.73
2018-02-21T15:52:42.898Z,35.10
2018-02-21T15:55:11.180Z,33.30
2018-02-21T15:57:39.666Z,31.20
2018-02-21T16:00:07.928Z,35.80
2018-02-21T16:02:36.293Z,28.40
2018-02-21T16:05:04.595Z,35.70
2018-02-21T16:07:32.881Z,34.60
2018-02-21T16:10:01.118Z,29.60
2018-02-21T16:12:29.421Z,29.57
2018-02-21T16:14:57.839Z,32.23
2018-02-21T16:17:30.245Z,26.30
2018-02-21T16:19:59.843Z,28.33
2018-02-21T16:22:28.121Z,29.20
2018-02-21T16:24:56.376Z,27.33
2018-02-21T16:27:24.628Z,26.93
2018-02-21T16:29:52.906Z,31.20
2018-02-21T16:32:21.154Z,27.03
2018-02-21T16:34:49.411Z,34.03
2018-02-21T16:37:18.577Z,34.53
2018-02-21T16:39:47.550Z,33.07
2018-02-21T16:42:15.882Z,26.40
2018-02-21T16:44:44.269Z,29.03
2018-02-21T16:47:12.667Z,29.63
2018-02-21T16:49:40.975Z,31.23
2018-02-21T16:52:09.260Z,28.87
2018-02-21T16:54:38.496Z,30.33
2018-02-21T16:57:06.848Z,28.67
2018-02-21T16:59:35.087Z,29.03
2018-02-21T17:02:03.362Z,32.80
2018-02-21T17:04:31.689Z,27.83
2018-02-21T17:06:59.954Z,32.60
2018-02-21T17:09:28.237Z,28.97
2018-02-21T17:11:56.485Z,31.83
2018-02-21T17:14:24.762Z,29.17
2018-02-21T17:16:53.034Z,33.60
2018-02-21T17:19:21.309Z,29.17
2018-02-21T17:21:49.614Z,32.27
2018-02-21T17:24:17.865Z,36.20
2018-02-21T17:26:46.169Z,30.17
2018-02-21T17:29:15.240Z,31.90
2018-02-21T17:31:43.513Z,33.43
2018-02-21T17:34:11.787Z,35.37
2018-02-21T17:36:40.096Z,27.70
2018-02-21T17:39:08.356Z,31.03
2018-02-21T17:41:36.617Z,30.33
2018-02-21T17:44:05.577Z,30.80
2018-02-21T17:46:34.249Z,32.27
2018-02-21T17:49:02.657Z,32.70
2018-02-21T17:51:31.868Z,28.53
2018-02-21T17:54:00.349Z,30.60
2018-02-21T17:56:30.104Z,31.40
2018-02-21T17:59:02.950Z,31.07
2018-02-21T18:01:31.489Z,38.07
2018-02-21T18:04:00.145Z,38.43
2018-02-21T18:06:38.386Z,32.90
2018-02-21T18:09:06.654Z,29.23
2018-02-21T18:11:34.941Z,36.60
2018-02-21T18:14:03.241Z,36.60
2018-02-21T18:16:31.524Z,30.10
2018-02-21T18:18:59.835Z,38.27
2018-02-21T18:21:33.857Z,35.10
2018-02-21T18:24:02.403Z,32.60
2018-02-21T18:26:30.722Z,33.23
2018-02-21T18:28:59.813Z,32.57
2018-02-21T18:31:28.886Z,28.60
2018-02-21T18:33:57.738Z,30.10
2018-02-21T18:36:26.006Z,28.20
2018-02-21T18:38:54.374Z,35.00
2018-02-21T18:41:22.650Z,28.43
2018-02-21T18:43:50.956Z,27.87
2018-02-21T18:46:19.204Z,25.17
2018-02-21T18:48:48.305Z,29.90
2018-02-21T18:51:16.827Z,23.50
2018-02-21T18:53:45.084Z,27.70
2018-02-21T18:56:13.374Z,28.50
2018-02-21T18:58:41.646Z,23.57
2018-02-21T19:01:09.922Z,22.27
2018-02-21T19:03:38.231Z,20.67
2018-02-21T19:06:06.501Z,24.30
2018-02-21T19:08:34.746Z,22.67
2018-02-21T19:11:03.054Z,25.07
2018-02-21T19:13:31.308Z,23.83
2018-02-21T19:16:00.564Z,24.80
2018-02-21T19:18:28.886Z,23.17
2018-02-21T19:20:58.333Z,26.00
2018-02-21T19:23:27.442Z,24.73
2018-02-21T19:25:56.138Z,21.27
2018-02-21T19:28:24.397Z,30.87
2018-02-21T19:30:53.773Z,30.23
2018-02-21T19:33:21.989Z,22.47
2018-02-21T19:35:50.337Z,23.83
2018-02-21T19:38:18.866Z,22.20
2018-02-21T19:40:47.284Z,25.40
2018-02-21T19:43:15.578Z,22.43
2018-02-21T19:45:43.862Z,23.90
2018-02-21T19:48:12.106Z,22.00
2018-02-21T19:50:40.367Z,22.80
2018-02-21T19:53:09.626Z,21.63
2018-02-21T19:55:37.897Z,22.93
2018-02-21T19:58:09.116Z,22.50
2018-02-21T20:00:37.414Z,24.70
2018-02-21T20:03:05.802Z,24.57
2018-02-21T20:05:34.060Z,26.33
2018-02-21T20:08:03.329Z,20.20
2018-02-21T20:10:32.483Z,22.23
2018-02-21T20:13:00.753Z,23.67
2018-02-21T20:15:29.858Z,22.00
2018-02-21T20:17:59.013Z,21.80
2018-02-21T20:20:28.155Z,23.60
2018-02-21T20:22:56.604Z,20.33
2018-02-21T20:25:25.737Z,22.83
2018-02-21T20:27:54.005Z,25.13
2018-02-21T20:30:23.771Z,22.13
2018-02-21T20:32:52.081Z,24.93
2018-02-21T20:35:20.479Z,19.07
2018-02-21T20:37:48.732Z,23.50
2018-02-21T20:40:17.910Z,20.53
2018-02-21T20:42:46.133Z,25.13
2018-02-21T20:45:14.453Z,22.67
2018-02-21T20:47:43.496Z,19.80
2018-02-21T20:50:12.448Z,23.33
2018-02-21T20:52:40.725Z,29.43
2018-02-21T20:55:08.972Z,22.83
2018-02-21T20:57:37.402Z,25.10
2018-02-21T21:00:08.621Z,22.07
2018-02-21T21:02:39.453Z,24.50
2018-02-21T21:05:07.671Z,23.77
2018-02-21T21:07:36.068Z,25.30
2018-02-21T21:10:04.543Z,27.83
2018-02-21T21:12:32.951Z,23.40
2018-02-21T21:15:01.292Z,24.20
2018-02-21T21:17:29.573Z,21.90
2018-02-21T21:19:57.828Z,22.90
2018-02-21T21:22:27.199Z,20.70
2018-02-21T21:24:55.416Z,20.17
2018-02-21T21:27:23.697Z,24.50
2018-02-21T21:29:51.970Z,25.33
2018-02-21T21:32:20.229Z,26.17
2018-02-21T21:34:48.504Z,24.53
2018-02-21T21:37:17.613Z,26.90
2018-02-21T21:39:46.650Z,21.47
2018-02-21T21:42:14.986Z,25.37
2018-02-21T21:44:43.237Z,23.07
2018-02-21T21:47:12.268Z,26.70
2018-02-21T21:49:40.625Z,23.57
2018-02-21T21:52:09.145Z,24.27
2018-02-21T21:54:37.430Z,23.23
2018-02-21T21:57:05.791Z,27.53
2018-02-21T21:59:34.337Z,25.40
2018-02-21T22:02:03.715Z,23.40
2018-02-21T22:04:31.963Z,23.90
2018-02-21T22:07:00.261Z,26.30
2018-02-21T22:09:28.550Z,22.40
2018-02-21T22:11:56.943Z,26.60
2018-02-21T22:14:26.059Z,21.30
2018-02-21T22:16:54.326Z,24.57
2018-02-21T22:19:22.605Z,30.20
2018-02-21T22:21:50.873Z,25.57
2018-02-21T22:24:19.174Z,26.57
2018-02-21T22:26:47.398Z,25.37
2018-02-21T22:29:15.698Z,25.92
2018-02-21T22:31:44.872Z,26.40
2018-02-21T22:34:27.339Z,24.27
2018-02-21T22:37:01.585Z,28.07
2018-02-21T22:39:30.646Z,21.20
2018-02-21T22:41:59.085Z,22.63
2018-02-21T22:44:28.341Z,25.73
2018-02-21T22:46:56.808Z,22.63
2018-02-21T22:49:25.232Z,23.97
2018-02-21T22:51:54.838Z,23.40
2018-02-21T22:54:24.072Z,25.83
2018-02-21T22:56:52.956Z,21.13
2018-02-21T22:59:21.435Z,26.80
2018-02-21T23:01:49.875Z,23.77
2018-02-21T23:04:19.169Z,26.33
2018-02-21T23:06:47.565Z,21.50
2018-02-21T23:09:16.052Z,26.90
2018-02-21T23:11:44.498Z,23.60
2018-02-21T23:14:12.921Z,26.57
2018-02-21T23:16:41.433Z,22.37
2018-02-21T23:19:09.745Z,29.30
2018-02-21T23:21:38.969Z,23.43
2018-02-21T23:24:07.308Z,21.83
2018-02-21T23:26:35.778Z,24.70
2018-02-21T23:29:04.412Z,24.80
2018-02-21T23:31:32.675Z,23.20
2018-02-21T23:34:00.930Z,23.47
2018-02-21T23:36:30.826Z,23.70
2018-02-21T23:38:59.073Z,23.40
2018-02-21T23:41:28.774Z,24.97
2018-02-21T23:43:57.885Z,24.83
2018-02-21T23:46:26.156Z,24.70
2018-02-21T23:48:55.458Z,27.60
2018-02-21T23:51:24.485Z,27.13
2018-02-21T23:53:52.857Z,23.47
2018-02-21T23:56:21.102Z,25.70
2018-02-21T23:58:50.637Z,23.90
